sensor_id;sensor_type;location;lat;lon;timestamp;temperature;humidity
26583;DHT22;14230;45.382;10.998;2022-07-03T00:00:21;26.80;99.90
26583;DHT22;14230;45.382;10.998;2022-07-03T00:02:48;26.80;99.90
26583;DHT22;14230;45.382;10.998;2022-07-03T00:05:15;26.70;99.90
26583;DHT22;14230;45.382;10.998;2022-07-03T00:07:43;26.70;99.90
26583;DHT22;14230;45.382;10.998;2022-07-03T00:10:10;26.70;99.90
26583;DHT22;14230;45.382;10.998;2022-07-03T00:12:37;26.60;99.90
26583;DHT22;14230;45.382;10.998;2022-07-03T00:15:05;26.60;99.90
26583;DHT22;14230;45.382;10.998;2022-07-03T00:17:32;26.60;99.90
26583;DHT22;14230;45.382;10.998;2022-07-03T00:19:59;26.60;99.90
26583;DHT22;14230;45.382;10.998;2022-07-03T00:22:27;26.60;99.90
26583;DHT22;14230;45.382;10.998;2022-07-03T00:25:04;26.60;99.90
26583;DHT22;14230;45.382;10.998;2022-07-03T00:27:33;26.50;99.90
26583;DHT22;14230;45.382;10.998;2022-07-03T00:30:01;26.40;99.90
26583;DHT22;14230;45.382;10.998;2022-07-03T00:32:28;26.40;99.90
26583;DHT22;14230;45.382;10.998;2022-07-03T00:34:56;26.40;99.90
26583;DHT22;14230;45.382;10.998;2022-07-03T00:37:24;26.30;99.90
26583;DHT22;14230;45.382;10.998;2022-07-03T00:39:51;26.30;99.90
26583;DHT22;14230;45.382;10.998;2022-07-03T00:42:19;26.30;99.90
26583;DHT22;14230;45.382;10.998;2022-07-03T00:44:47;26.30;99.90
26583;DHT22;14230;45.382;10.998;2022-07-03T00:47:16;26.20;99.90
26583;DHT22;14230;45.382;10.998;2022-07-03T00:49:45;26.20;99.90
26583;DHT22;14230;45.382;10.998;2022-07-03T00:52:14;26.20;99.90
26583;DHT22;14230;45.382;10.998;2022-07-03T00:54:45;26.20;99.90
26583;DHT22;14230;45.382;10.998;2022-07-03T00:57:15;26.20;99.90
26583;DHT22;14230;45.382;10.998;2022-07-03T00:59:43;26.10;99.90
26583;DHT22;14230;45.382;10.998;2022-07-03T01:02:34;26.00;99.90
26583;DHT22;14230;45.382;10.998;2022-07-03T01:05:12;26.10;99.90
26583;DHT22;14230;45.382;10.998;2022-07-03T01:15:43;26.00;99.90
26583;DHT22;14230;45.382;10.998;2022-07-03T01:21:02;26.00;99.90
26583;DHT22;14230;45.382;10.998;2022-07-03T01:23:38;26.00;99.90
26583;DHT22;14230;45.382;10.998;2022-07-03T01:26:11;26.00;99.90
26583;DHT22;14230;45.382;10.998;2022-07-03T01:28:39;25.90;99.90
26583;DHT22;14230;45.382;10.998;2022-07-03T01:31:10;25.90;99.90
26583;DHT22;14230;45.382;10.998;2022-07-03T01:33:40;25.90;99.90
26583;DHT22;14230;45.382;10.998;2022-07-03T01:36:08;25.90;99.90
26583;DHT22;14230;45.382;10.998;2022-07-03T01:38:37;25.90;99.90
26583;DHT22;14230;45.382;10.998;2022-07-03T01:41:05;25.90;99.90
26583;DHT22;14230;45.382;10.998;2022-07-03T01:44:16;25.90;99.90
26583;DHT22;14230;45.382;10.998;2022-07-03T01:46:26;25.80;99.90
26583;DHT22;14230;45.382;10.998;2022-07-03T01:48:54;25.80;99.90
26583;DHT22;14230;45.382;10.998;2022-07-03T01:51:22;25.80;99.90
26583;DHT22;14230;45.382;10.998;2022-07-03T01:53:51;25.80;99.90
26583;DHT22;14230;45.382;10.998;2022-07-03T01:56:19;25.80;99.90
26583;DHT22;14230;45.382;10.998;2022-07-03T01:58:46;25.80;99.90
26583;DHT22;14230;45.382;10.998;2022-07-03T02:03:42;25.80;99.90
26583;DHT22;14230;45.382;10.998;2022-07-03T02:06:31;25.70;99.90
26583;DHT22;14230;45.382;10.998;2022-07-03T02:09:04;25.70;99.90
26583;DHT22;14230;45.382;10.998;2022-07-03T02:11:52;25.70;99.90
26583;DHT22;14230;45.382;10.998;2022-07-03T02:14:22;25.70;99.90
26583;DHT22;14230;45.382;10.998;2022-07-03T02:19:26;25.70;99.90
26583;DHT22;14230;45.382;10.998;2022-07-03T02:21:55;25.70;99.90
26583;DHT22;14230;45.382;10.998;2022-07-03T02:24:23;25.80;99.90
26583;DHT22;14230;45.382;10.998;2022-07-03T02:29:21;25.80;99.90
26583;DHT22;14230;45.382;10.998;2022-07-03T02:31:57;25.70;99.90
26583;DHT22;14230;45.382;10.998;2022-07-03T02:34:24;25.70;99.90
26583;DHT22;14230;45.382;10.998;2022-07-03T02:36:52;25.70;99.90
26583;DHT22;14230;45.382;10.998;2022-07-03T02:45:08;25.70;99.90
26583;DHT22;14230;45.382;10.998;2022-07-03T02:50:12;25.70;99.90
26583;DHT22;14230;45.382;10.998;2022-07-03T02:52:54;25.70;99.90
26583;DHT22;14230;45.382;10.998;2022-07-03T03:00:31;25.60;99.90
26583;DHT22;14230;45.382;10.998;2022-07-03T03:03:00;25.60;99.90
26583;DHT22;14230;45.382;10.998;2022-07-03T03:10:38;25.60;99.90
26583;DHT22;14230;45.382;10.998;2022-07-03T03:15:33;25.60;99.90
26583;DHT22;14230;45.382;10.998;2022-07-03T03:18:02;25.50;99.90
26583;DHT22;14230;45.382;10.998;2022-07-03T03:20:32;25.50;99.90
26583;DHT22;14230;45.382;10.998;2022-07-03T03:23:09;25.40;99.90
26583;DHT22;14230;45.382;10.998;2022-07-03T03:25:36;25.30;99.90
26583;DHT22;14230;45.382;10.998;2022-07-03T03:28:04;25.30;99.90
26583;DHT22;14230;45.382;10.998;2022-07-03T03:30:31;25.10;99.90
26583;DHT22;14230;45.382;10.998;2022-07-03T03:32:59;25.10;99.90
26583;DHT22;14230;45.382;10.998;2022-07-03T03:35:26;25.10;99.90
26583;DHT22;14230;45.382;10.998;2022-07-03T03:37:53;25.10;99.90
26583;DHT22;14230;45.382;10.998;2022-07-03T03:40:20;25.00;99.90
26583;DHT22;14230;45.382;10.998;2022-07-03T03:42:48;24.90;99.90
26583;DHT22;14230;45.382;10.998;2022-07-03T03:45:15;25.00;99.90
26583;DHT22;14230;45.382;10.998;2022-07-03T03:47:42;24.90;99.90
26583;DHT22;14230;45.382;10.998;2022-07-03T03:50:10;25.00;99.90
26583;DHT22;14230;45.382;10.998;2022-07-03T03:52:37;25.00;99.90
26583;DHT22;14230;45.382;10.998;2022-07-03T03:55:05;25.10;99.90
26583;DHT22;14230;45.382;10.998;2022-07-03T03:57:32;25.20;99.90
26583;DHT22;14230;45.382;10.998;2022-07-03T04:00:02;25.30;99.90
26583;DHT22;14230;45.382;10.998;2022-07-03T04:02:38;25.40;99.90
26583;DHT22;14230;45.382;10.998;2022-07-03T04:05:05;25.60;99.90
26583;DHT22;14230;45.382;10.998;2022-07-03T04:07:33;25.80;99.90
26583;DHT22;14230;45.382;10.998;2022-07-03T04:10:00;26.10;99.90
26583;DHT22;14230;45.382;10.998;2022-07-03T04:12:27;26.30;99.90
26583;DHT22;14230;45.382;10.998;2022-07-03T04:14:57;26.60;99.90
26583;DHT22;14230;45.382;10.998;2022-07-03T04:17:24;26.90;99.90
26583;DHT22;14230;45.382;10.998;2022-07-03T04:19:51;27.20;99.90
26583;DHT22;14230;45.382;10.998;2022-07-03T04:22:18;27.50;99.90
26583;DHT22;14230;45.382;10.998;2022-07-03T04:24:46;27.80;99.90
26583;DHT22;14230;45.382;10.998;2022-07-03T04:27:13;28.10;99.90
26583;DHT22;14230;45.382;10.998;2022-07-03T04:29:40;28.40;99.90
26583;DHT22;14230;45.382;10.998;2022-07-03T04:32:08;28.50;99.90
26583;DHT22;14230;45.382;10.998;2022-07-03T04:34:36;28.40;99.90
26583;DHT22;14230;45.382;10.998;2022-07-03T04:37:03;28.20;99.90
26583;DHT22;14230;45.382;10.998;2022-07-03T04:39:31;27.90;99.90
26583;DHT22;14230;45.382;10.998;2022-07-03T04:41:58;27.70;99.90
26583;DHT22;14230;45.382;10.998;2022-07-03T04:44:25;27.60;99.90
26583;DHT22;14230;45.382;10.998;2022-07-03T04:46:52;27.40;99.90
26583;DHT22;14230;45.382;10.998;2022-07-03T04:49:19;27.30;99.90
26583;DHT22;14230;45.382;10.998;2022-07-03T04:51:47;27.10;99.90
26583;DHT22;14230;45.382;10.998;2022-07-03T04:54:14;27.10;99.90
26583;DHT22;14230;45.382;10.998;2022-07-03T04:56:41;26.90;99.90
26583;DHT22;14230;45.382;10.998;2022-07-03T04:59:08;26.90;99.90
26583;DHT22;14230;45.382;10.998;2022-07-03T05:01:36;26.90;99.90
26583;DHT22;14230;45.382;10.998;2022-07-03T05:04:03;26.90;99.90
26583;DHT22;14230;45.382;10.998;2022-07-03T05:06:30;27.10;99.90
26583;DHT22;14230;45.382;10.998;2022-07-03T05:08:57;27.20;99.90
26583;DHT22;14230;45.382;10.998;2022-07-03T05:11:25;27.30;99.90
26583;DHT22;14230;45.382;10.998;2022-07-03T05:13:52;27.40;99.90
26583;DHT22;14230;45.382;10.998;2022-07-03T05:16:19;27.50;99.90
26583;DHT22;14230;45.382;10.998;2022-07-03T05:18:46;27.60;99.90
26583;DHT22;14230;45.382;10.998;2022-07-03T05:21:14;27.80;99.90
26583;DHT22;14230;45.382;10.998;2022-07-03T05:23:41;28.00;99.90
26583;DHT22;14230;45.382;10.998;2022-07-03T05:26:08;28.20;99.90
26583;DHT22;14230;45.382;10.998;2022-07-03T05:28:35;28.40;99.90
26583;DHT22;14230;45.382;10.998;2022-07-03T05:31:03;28.60;99.90
26583;DHT22;14230;45.382;10.998;2022-07-03T05:33:30;28.80;99.90
26583;DHT22;14230;45.382;10.998;2022-07-03T05:35:58;29.00;99.90
26583;DHT22;14230;45.382;10.998;2022-07-03T05:38:26;29.30;99.90
26583;DHT22;14230;45.382;10.998;2022-07-03T05:41:11;29.50;99.90
26583;DHT22;14230;45.382;10.998;2022-07-03T05:43:38;29.80;99.90
26583;DHT22;14230;45.382;10.998;2022-07-03T05:46:06;29.90;99.90
26583;DHT22;14230;45.382;10.998;2022-07-03T05:48:33;30.10;99.90
26583;DHT22;14230;45.382;10.998;2022-07-03T05:51:01;30.30;99.90
26583;DHT22;14230;45.382;10.998;2022-07-03T05:53:28;30.40;99.90
26583;DHT22;14230;45.382;10.998;2022-07-03T05:55:56;30.80;99.90
26583;DHT22;14230;45.382;10.998;2022-07-03T05:58:24;31.10;99.90
26583;DHT22;14230;45.382;10.998;2022-07-03T06:00:51;31.50;99.90
26583;DHT22;14230;45.382;10.998;2022-07-03T06:03:20;31.60;99.90
26583;DHT22;14230;45.382;10.998;2022-07-03T06:05:47;31.90;99.90
26583;DHT22;14230;45.382;10.998;2022-07-03T06:08:15;32.00;99.90
26583;DHT22;14230;45.382;10.998;2022-07-03T06:10:43;32.30;99.90
26583;DHT22;14230;45.382;10.998;2022-07-03T06:13:10;32.40;99.90
26583;DHT22;14230;45.382;10.998;2022-07-03T06:15:37;32.60;99.90
26583;DHT22;14230;45.382;10.998;2022-07-03T06:18:05;32.60;99.90
26583;DHT22;14230;45.382;10.998;2022-07-03T06:20:32;32.70;99.90
26583;DHT22;14230;45.382;10.998;2022-07-03T06:22:59;33.10;99.90
26583;DHT22;14230;45.382;10.998;2022-07-03T06:25:26;33.50;99.90
26583;DHT22;14230;45.382;10.998;2022-07-03T06:27:53;33.50;99.90
26583;DHT22;14230;45.382;10.998;2022-07-03T06:30:21;33.50;99.90
26583;DHT22;14230;45.382;10.998;2022-07-03T06:32:48;33.70;99.90
26583;DHT22;14230;45.382;10.998;2022-07-03T06:35:15;34.20;99.90
26583;DHT22;14230;45.382;10.998;2022-07-03T06:37:44;34.50;99.90
26583;DHT22;14230;45.382;10.998;2022-07-03T06:40:11;34.80;99.90
26583;DHT22;14230;45.382;10.998;2022-07-03T06:42:38;35.10;99.90
26583;DHT22;14230;45.382;10.998;2022-07-03T06:45:06;35.50;99.90
26583;DHT22;14230;45.382;10.998;2022-07-03T06:47:38;35.80;99.90
26583;DHT22;14230;45.382;10.998;2022-07-03T06:50:06;35.90;99.10
26583;DHT22;14230;45.382;10.998;2022-07-03T06:52:34;35.90;99.00
26583;DHT22;14230;45.382;10.998;2022-07-03T06:55:01;36.40;98.40
26583;DHT22;14230;45.382;10.998;2022-07-03T06:57:28;36.40;98.20
26583;DHT22;14230;45.382;10.998;2022-07-03T06:59:55;36.90;97.60
26583;DHT22;14230;45.382;10.998;2022-07-03T07:02:23;37.20;96.90
26583;DHT22;14230;45.382;10.998;2022-07-03T07:04:50;37.80;96.30
26583;DHT22;14230;45.382;10.998;2022-07-03T07:07:17;38.30;95.50
26583;DHT22;14230;45.382;10.998;2022-07-03T07:09:44;38.50;95.00
26583;DHT22;14230;45.382;10.998;2022-07-03T07:12:14;38.80;94.10
26583;DHT22;14230;45.382;10.998;2022-07-03T07:14:41;39.10;93.90
26583;DHT22;14230;45.382;10.998;2022-07-03T07:17:10;39.10;92.80
26583;DHT22;14230;45.382;10.998;2022-07-03T07:19:37;39.20;92.60
26583;DHT22;14230;45.382;10.998;2022-07-03T07:22:04;39.90;92.20
26583;DHT22;14230;45.382;10.998;2022-07-03T07:24:31;40.10;91.80
26583;DHT22;14230;45.382;10.998;2022-07-03T07:26:59;40.20;91.70
26583;DHT22;14230;45.382;10.998;2022-07-03T07:29:26;40.10;91.40
26583;DHT22;14230;45.382;10.998;2022-07-03T07:31:53;40.60;90.50
26583;DHT22;14230;45.382;10.998;2022-07-03T07:34:21;41.10;90.40
26583;DHT22;14230;45.382;10.998;2022-07-03T07:36:48;41.20;90.00
26583;DHT22;14230;45.382;10.998;2022-07-03T07:39:15;41.40;88.70
26583;DHT22;14230;45.382;10.998;2022-07-03T07:41:42;41.70;87.10
26583;DHT22;14230;45.382;10.998;2022-07-03T07:44:10;42.00;86.20
26583;DHT22;14230;45.382;10.998;2022-07-03T07:46:41;42.50;84.30
26583;DHT22;14230;45.382;10.998;2022-07-03T07:49:08;42.40;84.50
26583;DHT22;14230;45.382;10.998;2022-07-03T07:51:35;42.70;82.60
26583;DHT22;14230;45.382;10.998;2022-07-03T07:54:03;43.00;81.20
26583;DHT22;14230;45.382;10.998;2022-07-03T07:56:30;43.00;79.90
26583;DHT22;14230;45.382;10.998;2022-07-03T07:58:57;43.00;78.50
26583;DHT22;14230;45.382;10.998;2022-07-03T08:01:24;43.20;78.60
26583;DHT22;14230;45.382;10.998;2022-07-03T08:04:10;43.80;77.10
26583;DHT22;14230;45.382;10.998;2022-07-03T08:06:56;43.30;75.90
26583;DHT22;14230;45.382;10.998;2022-07-03T08:09:23;43.30;75.80
26583;DHT22;14230;45.382;10.998;2022-07-03T08:11:50;43.50;75.10
26583;DHT22;14230;45.382;10.998;2022-07-03T08:14:17;44.60;72.90
26583;DHT22;14230;45.382;10.998;2022-07-03T08:16:45;44.50;72.30
26583;DHT22;14230;45.382;10.998;2022-07-03T08:19:13;45.20;70.50
26583;DHT22;14230;45.382;10.998;2022-07-03T08:21:41;45.30;68.20
26583;DHT22;14230;45.382;10.998;2022-07-03T08:24:08;44.70;68.70
26583;DHT22;14230;45.382;10.998;2022-07-03T08:26:36;44.10;69.80
26583;DHT22;14230;45.382;10.998;2022-07-03T08:29:04;44.40;67.70
26583;DHT22;14230;45.382;10.998;2022-07-03T08:31:31;43.90;68.90
26583;DHT22;14230;45.382;10.998;2022-07-03T08:33:58;43.70;68.90
26583;DHT22;14230;45.382;10.998;2022-07-03T08:36:26;44.60;67.80
26583;DHT22;14230;45.382;10.998;2022-07-03T08:38:53;44.50;66.90
26583;DHT22;14230;45.382;10.998;2022-07-03T08:41:20;45.00;65.80
26583;DHT22;14230;45.382;10.998;2022-07-03T08:43:48;45.30;65.00
26583;DHT22;14230;45.382;10.998;2022-07-03T08:46:17;45.10;64.50
26583;DHT22;14230;45.382;10.998;2022-07-03T08:48:45;44.60;64.70
26583;DHT22;14230;45.382;10.998;2022-07-03T08:51:12;44.60;66.00
26583;DHT22;14230;45.382;10.998;2022-07-03T08:53:40;44.80;65.40
26583;DHT22;14230;45.382;10.998;2022-07-03T08:56:08;44.80;63.50
26583;DHT22;14230;45.382;10.998;2022-07-03T08:58:36;44.70;65.60
26583;DHT22;14230;45.382;10.998;2022-07-03T09:01:04;44.70;64.40
26583;DHT22;14230;45.382;10.998;2022-07-03T09:03:31;45.10;63.30
26583;DHT22;14230;45.382;10.998;2022-07-03T09:05:58;45.00;62.90
26583;DHT22;14230;45.382;10.998;2022-07-03T09:08:26;44.40;63.80
26583;DHT22;14230;45.382;10.998;2022-07-03T09:10:54;44.50;63.60
26583;DHT22;14230;45.382;10.998;2022-07-03T09:13:21;44.60;64.20
26583;DHT22;14230;45.382;10.998;2022-07-03T09:15:49;44.40;63.70
26583;DHT22;14230;45.382;10.998;2022-07-03T09:18:16;44.20;63.70
26583;DHT22;14230;45.382;10.998;2022-07-03T09:20:45;44.60;63.90
26583;DHT22;14230;45.382;10.998;2022-07-03T09:28:22;43.70;64.50
26583;DHT22;14230;45.382;10.998;2022-07-03T09:31:00;43.40;64.70
26583;DHT22;14230;45.382;10.998;2022-07-03T09:33:27;43.90;64.30
26583;DHT22;14230;45.382;10.998;2022-07-03T09:35:55;44.40;64.30
26583;DHT22;14230;45.382;10.998;2022-07-03T09:38:22;44.90;63.10
26583;DHT22;14230;45.382;10.998;2022-07-03T09:40:54;45.00;63.80
26583;DHT22;14230;45.382;10.998;2022-07-03T09:43:24;45.30;63.90
26583;DHT22;14230;45.382;10.998;2022-07-03T09:45:53;45.90;62.30
26583;DHT22;14230;45.382;10.998;2022-07-03T09:48:24;45.80;60.60
26583;DHT22;14230;45.382;10.998;2022-07-03T09:56:24;45.50;62.70
26583;DHT22;14230;45.382;10.998;2022-07-03T09:58:58;45.00;63.40
26583;DHT22;14230;45.382;10.998;2022-07-03T10:01:25;45.20;63.50
26583;DHT22;14230;45.382;10.998;2022-07-03T10:03:53;45.20;63.10
26583;DHT22;14230;45.382;10.998;2022-07-03T10:06:20;45.70;61.90
26583;DHT22;14230;45.382;10.998;2022-07-03T10:08:48;45.70;61.30
26583;DHT22;14230;45.382;10.998;2022-07-03T10:11:15;45.20;61.50
26583;DHT22;14230;45.382;10.998;2022-07-03T10:13:42;44.70;62.20
26583;DHT22;14230;45.382;10.998;2022-07-03T10:16:09;44.40;62.50
26583;DHT22;14230;45.382;10.998;2022-07-03T10:18:37;44.30;63.80
26583;DHT22;14230;45.382;10.998;2022-07-03T10:21:06;44.00;64.70
26583;DHT22;14230;45.382;10.998;2022-07-03T10:23:34;44.10;64.60
26583;DHT22;14230;45.382;10.998;2022-07-03T10:26:01;44.40;65.30
26583;DHT22;14230;45.382;10.998;2022-07-03T10:28:29;43.90;65.20
26583;DHT22;14230;45.382;10.998;2022-07-03T10:30:57;43.60;66.90
26583;DHT22;14230;45.382;10.998;2022-07-03T10:33:25;44.00;66.80
26583;DHT22;14230;45.382;10.998;2022-07-03T10:35:54;43.90;65.50
26583;DHT22;14230;45.382;10.998;2022-07-03T10:38:32;44.00;65.10
26583;DHT22;14230;45.382;10.998;2022-07-03T10:43:47;43.90;67.10
26583;DHT22;14230;45.382;10.998;2022-07-03T10:46:33;43.70;66.60
26583;DHT22;14230;45.382;10.998;2022-07-03T10:49:10;43.90;65.90
26583;DHT22;14230;45.382;10.998;2022-07-03T10:51:56;44.00;65.40
26583;DHT22;14230;45.382;10.998;2022-07-03T10:54:30;43.90;66.30
26583;DHT22;14230;45.382;10.998;2022-07-03T11:07:29;42.90;62.90
26583;DHT22;14230;45.382;10.998;2022-07-03T11:15:38;39.60;68.20
26583;DHT22;14230;45.382;10.998;2022-07-03T11:18:14;39.00;69.30
26583;DHT22;14230;45.382;10.998;2022-07-03T11:25:55;37.90;71.30
26583;DHT22;14230;45.382;10.998;2022-07-03T11:41:19;36.60;74.30
26583;DHT22;14230;45.382;10.998;2022-07-03T11:43:47;36.60;74.80
26583;DHT22;14230;45.382;10.998;2022-07-03T11:46:21;36.50;76.10
26583;DHT22;14230;45.382;10.998;2022-07-03T11:48:49;36.60;80.10
26583;DHT22;14230;45.382;10.998;2022-07-03T11:51:16;36.70;79.70
26583;DHT22;14230;45.382;10.998;2022-07-03T11:53:43;36.50;77.90
26583;DHT22;14230;45.382;10.998;2022-07-03T11:56:12;36.30;79.30
26583;DHT22;14230;45.382;10.998;2022-07-03T11:58:46;36.30;81.00
26583;DHT22;14230;45.382;10.998;2022-07-03T12:04:12;36.30;81.00
26583;DHT22;14230;45.382;10.998;2022-07-03T12:09:11;36.20;80.50
26583;DHT22;14230;45.382;10.998;2022-07-03T12:11:39;36.20;80.30
26583;DHT22;14230;45.382;10.998;2022-07-03T12:14:06;36.30;79.90
26583;DHT22;14230;45.382;10.998;2022-07-03T12:16:33;36.10;80.50
26583;DHT22;14230;45.382;10.998;2022-07-03T12:19:04;36.10;80.80
26583;DHT22;14230;45.382;10.998;2022-07-03T12:21:39;36.00;81.70
26583;DHT22;14230;45.382;10.998;2022-07-03T12:24:10;36.00;81.20
26583;DHT22;14230;45.382;10.998;2022-07-03T12:26:38;36.10;81.20
26583;DHT22;14230;45.382;10.998;2022-07-03T12:29:13;36.20;81.90
26583;DHT22;14230;45.382;10.998;2022-07-03T12:31:42;36.20;81.10
26583;DHT22;14230;45.382;10.998;2022-07-03T12:34:12;36.30;81.40
26583;DHT22;14230;45.382;10.998;2022-07-03T12:36:40;36.30;80.40
26583;DHT22;14230;45.382;10.998;2022-07-03T12:39:20;36.30;79.90
26583;DHT22;14230;45.382;10.998;2022-07-03T12:41:47;36.20;80.60
26583;DHT22;14230;45.382;10.998;2022-07-03T12:44:15;36.00;81.10
26583;DHT22;14230;45.382;10.998;2022-07-03T12:46:47;36.00;81.40
26583;DHT22;14230;45.382;10.998;2022-07-03T12:49:15;35.90;83.40
26583;DHT22;14230;45.382;10.998;2022-07-03T12:54:14;36.10;83.60
26583;DHT22;14230;45.382;10.998;2022-07-03T12:56:42;36.10;84.30
26583;DHT22;14230;45.382;10.998;2022-07-03T12:59:25;36.10;83.20
26583;DHT22;14230;45.382;10.998;2022-07-03T13:02:05;36.10;81.90
26583;DHT22;14230;45.382;10.998;2022-07-03T13:04:33;35.80;82.40
26583;DHT22;14230;45.382;10.998;2022-07-03T13:07:02;35.60;84.10
26583;DHT22;14230;45.382;10.998;2022-07-03T13:09:29;35.60;85.70
26583;DHT22;14230;45.382;10.998;2022-07-03T13:11:56;35.70;86.50
26583;DHT22;14230;45.382;10.998;2022-07-03T13:14:24;35.60;85.40
26583;DHT22;14230;45.382;10.998;2022-07-03T13:16:52;35.80;86.00
26583;DHT22;14230;45.382;10.998;2022-07-03T13:19:23;35.80;85.30
26583;DHT22;14230;45.382;10.998;2022-07-03T13:21:53;35.80;85.60
26583;DHT22;14230;45.382;10.998;2022-07-03T13:24:20;35.70;85.20
26583;DHT22;14230;45.382;10.998;2022-07-03T13:26:49;35.70;83.70
26583;DHT22;14230;45.382;10.998;2022-07-03T13:29:20;35.70;83.80
26583;DHT22;14230;45.382;10.998;2022-07-03T13:31:47;35.60;84.10
26583;DHT22;14230;45.382;10.998;2022-07-03T13:34:17;35.60;83.00
26583;DHT22;14230;45.382;10.998;2022-07-03T13:36:44;35.60;82.90
26583;DHT22;14230;45.382;10.998;2022-07-03T13:39:12;35.70;84.20
26583;DHT22;14230;45.382;10.998;2022-07-03T13:41:39;35.60;85.00
26583;DHT22;14230;45.382;10.998;2022-07-03T13:44:06;35.70;85.40
26583;DHT22;14230;45.382;10.998;2022-07-03T13:46:33;35.80;85.70
26583;DHT22;14230;45.382;10.998;2022-07-03T13:49:01;35.90;84.30
26583;DHT22;14230;45.382;10.998;2022-07-03T13:51:28;35.90;85.40
26583;DHT22;14230;45.382;10.998;2022-07-03T13:53:56;35.90;83.80
26583;DHT22;14230;45.382;10.998;2022-07-03T13:56:23;35.90;82.90
26583;DHT22;14230;45.382;10.998;2022-07-03T13:58:50;35.90;84.60
26583;DHT22;14230;45.382;10.998;2022-07-03T14:01:19;35.80;83.90
26583;DHT22;14230;45.382;10.998;2022-07-03T14:03:48;35.60;83.80
26583;DHT22;14230;45.382;10.998;2022-07-03T14:06:15;35.50;83.40
26583;DHT22;14230;45.382;10.998;2022-07-03T14:08:43;35.60;85.00
26583;DHT22;14230;45.382;10.998;2022-07-03T14:11:10;35.60;84.00
26583;DHT22;14230;45.382;10.998;2022-07-03T14:13:37;35.60;83.80
26583;DHT22;14230;45.382;10.998;2022-07-03T14:16:04;35.70;84.70
26583;DHT22;14230;45.382;10.998;2022-07-03T14:18:32;35.80;83.60
26583;DHT22;14230;45.382;10.998;2022-07-03T14:20:59;35.90;82.80
26583;DHT22;14230;45.382;10.998;2022-07-03T14:23:26;35.90;81.70
26583;DHT22;14230;45.382;10.998;2022-07-03T14:25:53;35.90;81.60
26583;DHT22;14230;45.382;10.998;2022-07-03T14:28:20;36.00;81.50
26583;DHT22;14230;45.382;10.998;2022-07-03T14:31:06;35.90;82.20
26583;DHT22;14230;45.382;10.998;2022-07-03T14:33:52;35.70;83.90
26583;DHT22;14230;45.382;10.998;2022-07-03T14:36:20;35.80;83.60
26583;DHT22;14230;45.382;10.998;2022-07-03T14:39:07;35.80;82.60
26583;DHT22;14230;45.382;10.998;2022-07-03T14:41:34;35.80;83.40
26583;DHT22;14230;45.382;10.998;2022-07-03T14:44:01;35.80;86.10
26583;DHT22;14230;45.382;10.998;2022-07-03T14:46:29;35.80;86.20
26583;DHT22;14230;45.382;10.998;2022-07-03T14:48:56;35.80;86.60
26583;DHT22;14230;45.382;10.998;2022-07-03T14:51:23;35.90;87.20
26583;DHT22;14230;45.382;10.998;2022-07-03T14:53:51;35.90;87.10
26583;DHT22;14230;45.382;10.998;2022-07-03T14:56:18;35.90;86.40
26583;DHT22;14230;45.382;10.998;2022-07-03T14:58:47;35.90;84.20
26583;DHT22;14230;45.382;10.998;2022-07-03T15:01:16;35.80;84.80
26583;DHT22;14230;45.382;10.998;2022-07-03T15:03:55;35.70;85.20
26583;DHT22;14230;45.382;10.998;2022-07-03T15:06:25;35.60;85.70
26583;DHT22;14230;45.382;10.998;2022-07-03T15:08:58;35.60;84.90
26583;DHT22;14230;45.382;10.998;2022-07-03T15:14:30;35.70;83.20
26583;DHT22;14230;45.382;10.998;2022-07-03T15:17:06;35.60;81.80
26583;DHT22;14230;45.382;10.998;2022-07-03T15:19:34;35.60;80.40
26583;DHT22;14230;45.382;10.998;2022-07-03T15:22:03;35.60;79.90
26583;DHT22;14230;45.382;10.998;2022-07-03T15:24:31;35.60;79.80
26583;DHT22;14230;45.382;10.998;2022-07-03T15:26:58;35.50;79.70
26583;DHT22;14230;45.382;10.998;2022-07-03T15:29:26;35.40;80.50
26583;DHT22;14230;45.382;10.998;2022-07-03T15:31:53;35.30;81.90
26583;DHT22;14230;45.382;10.998;2022-07-03T15:34:21;35.20;81.70
26583;DHT22;14230;45.382;10.998;2022-07-03T15:36:51;35.30;81.70
26583;DHT22;14230;45.382;10.998;2022-07-03T15:39:23;35.20;83.00
26583;DHT22;14230;45.382;10.998;2022-07-03T15:41:55;35.40;83.10
26583;DHT22;14230;45.382;10.998;2022-07-03T15:47:05;35.30;83.00
26583;DHT22;14230;45.382;10.998;2022-07-03T15:49:34;35.30;82.90
26583;DHT22;14230;45.382;10.998;2022-07-03T15:52:05;35.40;82.30
26583;DHT22;14230;45.382;10.998;2022-07-03T15:57:03;35.40;82.60
26583;DHT22;14230;45.382;10.998;2022-07-03T15:59:31;35.40;83.20
26583;DHT22;14230;45.382;10.998;2022-07-03T16:02:01;35.40;83.20
26583;DHT22;14230;45.382;10.998;2022-07-03T16:07:13;35.30;83.10
26583;DHT22;14230;45.382;10.998;2022-07-03T16:09:42;35.30;83.80
26583;DHT22;14230;45.382;10.998;2022-07-03T16:12:11;35.20;82.30
26583;DHT22;14230;45.382;10.998;2022-07-03T16:14:59;35.20;82.30
26583;DHT22;14230;45.382;10.998;2022-07-03T16:17:27;35.20;82.50
26583;DHT22;14230;45.382;10.998;2022-07-03T16:19:54;35.20;83.00
26583;DHT22;14230;45.382;10.998;2022-07-03T16:22:22;35.20;84.90
26583;DHT22;14230;45.382;10.998;2022-07-03T16:24:50;35.20;84.20
26583;DHT22;14230;45.382;10.998;2022-07-03T16:27:17;35.20;84.10
26583;DHT22;14230;45.382;10.998;2022-07-03T16:29:48;35.10;82.30
26583;DHT22;14230;45.382;10.998;2022-07-03T16:32:19;35.10;82.90
26583;DHT22;14230;45.382;10.998;2022-07-03T16:37:18;35.20;83.60
26583;DHT22;14230;45.382;10.998;2022-07-03T16:39:48;35.20;82.70
26583;DHT22;14230;45.382;10.998;2022-07-03T16:42:17;35.20;82.80
26583;DHT22;14230;45.382;10.998;2022-07-03T16:44:46;35.20;82.40
26583;DHT22;14230;45.382;10.998;2022-07-03T16:47:15;35.20;82.40
26583;DHT22;14230;45.382;10.998;2022-07-03T16:49:42;35.20;83.60
26583;DHT22;14230;45.382;10.998;2022-07-03T16:52:11;35.20;84.70
26583;DHT22;14230;45.382;10.998;2022-07-03T16:54:39;35.30;84.40
26583;DHT22;14230;45.382;10.998;2022-07-03T16:57:08;35.30;85.10
26583;DHT22;14230;45.382;10.998;2022-07-03T16:59:35;35.20;84.60
26583;DHT22;14230;45.382;10.998;2022-07-03T17:02:04;35.20;84.70
26583;DHT22;14230;45.382;10.998;2022-07-03T17:04:35;35.10;84.50
26583;DHT22;14230;45.382;10.998;2022-07-03T17:07:04;35.20;85.20
26583;DHT22;14230;45.382;10.998;2022-07-03T17:09:31;35.10;83.70
26583;DHT22;14230;45.382;10.998;2022-07-03T17:11:59;35.00;83.60
26583;DHT22;14230;45.382;10.998;2022-07-03T17:14:28;35.00;85.30